TimeCST,TemperatureF,Dew PointF,Humidity,Sea Level PressureIn,VisibilityMPH,Wind Direction,Wind SpeedMPH,Gust SpeedMPH,PrecipitationIn,Events,Conditions,WindDirDegrees,DateUTC
12:53 AM,46.0,24.1,42,30.16,10.0,WSW,11.5,-,N/A,,Clear,240,2013-01-20 06:53:00
1:53 AM,46.0,24.1,42,30.16,10.0,WSW,12.7,-,N/A,,Clear,250,2013-01-20 07:53:00
2:53 AM,43.0,23.0,45,30.17,10.0,WSW,11.5,-,N/A,,Clear,250,2013-01-20 08:53:00
3:53 AM,42.1,21.9,45,30.16,10.0,WSW,12.7,-,N/A,,Clear,250,2013-01-20 09:53:00
4:53 AM,39.9,21.9,49,30.16,10.0,WSW,11.5,-,N/A,,Clear,250,2013-01-20 10:53:00
5:53 AM,37.9,21.0,51,30.16,10.0,West,10.4,-,N/A,,Clear,270,2013-01-20 11:53:00
6:53 AM,37.0,21.0,52,30.18,10.0,West,10.4,-,N/A,,Clear,260,2013-01-20 12:53:00
7:53 AM,37.9,19.9,48,30.18,10.0,WSW,11.5,-,N/A,,Clear,250,2013-01-20 13:53:00
8:53 AM,39.9,21.0,47,30.21,10.0,WSW,9.2,-,N/A,,Clear,250,2013-01-20 14:53:00
9:53 AM,46.0,21.9,39,30.22,10.0,West,5.8,-,N/A,,Clear,260,2013-01-20 15:53:00
10:53 AM,52.0,21.0,30,30.22,10.0,North,-9999.0,-,N/A,,Clear,0,2013-01-20 16:53:00
11:53 AM,57.9,19.9,23,30.18,10.0,North,-9999.0,-,N/A,,Clear,0,2013-01-20 17:53:00
12:53 PM,60.1,19.0,20,30.13,10.0,NNW,3.5,-,N/A,,Clear,340,2013-01-20 18:53:00
1:53 PM,63.0,17.1,17,30.08,10.0,Calm,Calm,-,N/A,,Clear,0,2013-01-20 19:53:00
2:53 PM,64.9,17.1,16,30.06,10.0,Calm,Calm,-,N/A,,Clear,0,2013-01-20 20:53:00
3:53 PM,66.0,17.1,15,30.03,10.0,East,4.6,-,N/A,,Clear,90,2013-01-20 21:53:00
4:53 PM,66.9,18.0,15,30.02,10.0,ENE,3.5,-,N/A,,Clear,70,2013-01-20 22:53:00
5:53 PM,63.0,23.0,22,30.03,10.0,ENE,5.8,-,N/A,,Clear,60,2013-01-20 23:53:00
6:53 PM,57.0,24.1,28,30.05,10.0,East,4.6,-,N/A,,Clear,90,2013-01-21 00:53:00
7:53 PM,52.0,25.0,35,30.07,10.0,SE,5.8,-,N/A,,Clear,140,2013-01-21 01:53:00
8:53 PM,50.0,25.0,38,30.07,10.0,SSE,6.9,-,N/A,,Clear,160,2013-01-21 02:53:00
9:53 PM,52.0,26.1,37,30.06,10.0,South,12.7,-,N/A,,Clear,170,2013-01-21 03:53:00
10:53 PM,52.0,27.0,38,30.06,10.0,South,15.0,-,N/A,,Clear,180,2013-01-21 04:53:00
11:53 PM,50.0,28.0,43,30.05,10.0,South,10.4,-,N/A,,Clear,180,2013-01-21 05:53:00